sensor_id;sensor_type;location;lat;lon;timestamp;P1;durP1;ratioP1;P2;durP2;ratioP2
3379;SDS011;1703;51.964;7.642;2023-05-07T00:01:33;9.60;;;5.97;;
3379;SDS011;1703;51.964;7.642;2023-05-07T00:04:00;7.87;;;5.20;;
3379;SDS011;1703;51.964;7.642;2023-05-07T00:06:27;5.97;;;5.40;;
3379;SDS011;1703;51.964;7.642;2023-05-07T00:08:54;7.10;;;6.40;;
3379;SDS011;1703;51.964;7.642;2023-05-07T00:11:22;8.50;;;5.37;;
3379;SDS011;1703;51.964;7.642;2023-05-07T00:13:49;7.07;;;5.00;;
3379;SDS011;1703;51.964;7.642;2023-05-07T00:16:15;5.57;;;4.87;;
3379;SDS011;1703;51.964;7.642;2023-05-07T00:18:42;5.33;;;4.80;;
3379;SDS011;1703;51.964;7.642;2023-05-07T00:21:10;7.17;;;5.57;;
3379;SDS011;1703;51.964;7.642;2023-05-07T00:23:37;6.70;;;4.90;;
3379;SDS011;1703;51.964;7.642;2023-05-07T00:26:03;6.47;;;5.60;;
3379;SDS011;1703;51.964;7.642;2023-05-07T00:28:32;6.20;;;5.60;;
3379;SDS011;1703;51.964;7.642;2023-05-07T00:30:58;10.77;;;5.90;;
3379;SDS011;1703;51.964;7.642;2023-05-07T00:33:25;6.80;;;6.07;;
3379;SDS011;1703;51.964;7.642;2023-05-07T00:35:52;10.00;;;6.00;;
3379;SDS011;1703;51.964;7.642;2023-05-07T00:38:20;7.23;;;6.47;;
3379;SDS011;1703;51.964;7.642;2023-05-07T00:40:47;7.27;;;6.10;;
3379;SDS011;1703;51.964;7.642;2023-05-07T00:43:13;9.10;;;5.47;;
3379;SDS011;1703;51.964;7.642;2023-05-07T00:45:42;5.77;;;5.27;;
3379;SDS011;1703;51.964;7.642;2023-05-07T00:48:09;4.97;;;4.47;;
3379;SDS011;1703;51.964;7.642;2023-05-07T00:50:36;6.13;;;5.50;;
3379;SDS011;1703;51.964;7.642;2023-05-07T00:53:03;6.07;;;5.57;;
3379;SDS011;1703;51.964;7.642;2023-05-07T00:55:30;6.53;;;5.93;;
3379;SDS011;1703;51.964;7.642;2023-05-07T00:57:57;6.73;;;6.13;;
3379;SDS011;1703;51.964;7.642;2023-05-07T01:00:24;7.97;;;5.80;;
3379;SDS011;1703;51.964;7.642;2023-05-07T01:02:53;9.33;;;5.60;;
3379;SDS011;1703;51.964;7.642;2023-05-07T01:05:20;9.73;;;6.93;;
3379;SDS011;1703;51.964;7.642;2023-05-07T01:07:49;7.23;;;6.50;;
3379;SDS011;1703;51.964;7.642;2023-05-07T01:10:18;11.30;;;6.47;;
3379;SDS011;1703;51.964;7.642;2023-05-07T01:12:45;8.03;;;7.00;;
3379;SDS011;1703;51.964;7.642;2023-05-07T01:15:14;7.33;;;6.63;;
3379;SDS011;1703;51.964;7.642;2023-05-07T01:17:41;8.87;;;8.07;;
3379;SDS011;1703;51.964;7.642;2023-05-07T01:20:17;10.63;;;8.10;;
3379;SDS011;1703;51.964;7.642;2023-05-07T01:22:47;9.13;;;7.77;;
3379;SDS011;1703;51.964;7.642;2023-05-07T01:25:14;10.23;;;9.13;;
3379;SDS011;1703;51.964;7.642;2023-05-07T01:27:46;10.90;;;8.50;;
3379;SDS011;1703;51.964;7.642;2023-05-07T01:30:13;9.70;;;8.70;;
3379;SDS011;1703;51.964;7.642;2023-05-07T01:32:40;13.70;;;8.90;;
3379;SDS011;1703;51.964;7.642;2023-05-07T01:35:10;10.63;;;8.87;;
3379;SDS011;1703;51.964;7.642;2023-05-07T01:37:39;10.57;;;9.50;;
3379;SDS011;1703;51.964;7.642;2023-05-07T01:40:09;12.00;;;8.93;;
3379;SDS011;1703;51.964;7.642;2023-05-07T01:42:36;11.90;;;10.60;;
3379;SDS011;1703;51.964;7.642;2023-05-07T01:45:04;11.70;;;10.57;;
3379;SDS011;1703;51.964;7.642;2023-05-07T01:47:32;11.77;;;9.80;;
3379;SDS011;1703;51.964;7.642;2023-05-07T01:49:59;13.00;;;10.80;;
3379;SDS011;1703;51.964;7.642;2023-05-07T01:52:27;14.43;;;11.13;;
3379;SDS011;1703;51.964;7.642;2023-05-07T01:54:55;18.50;;;12.20;;
3379;SDS011;1703;51.964;7.642;2023-05-07T01:57:23;13.10;;;11.33;;
3379;SDS011;1703;51.964;7.642;2023-05-07T01:59:50;21.10;;;13.30;;
3379;SDS011;1703;51.964;7.642;2023-05-07T02:02:17;17.97;;;13.17;;
3379;SDS011;1703;51.964;7.642;2023-05-07T02:04:44;16.83;;;13.00;;
3379;SDS011;1703;51.964;7.642;2023-05-07T02:07:12;16.73;;;14.17;;
3379;SDS011;1703;51.964;7.642;2023-05-07T02:09:39;18.57;;;13.93;;
3379;SDS011;1703;51.964;7.642;2023-05-07T02:12:05;19.70;;;15.33;;
3379;SDS011;1703;51.964;7.642;2023-05-07T02:14:34;21.43;;;15.40;;
3379;SDS011;1703;51.964;7.642;2023-05-07T02:17:00;20.50;;;16.57;;
3379;SDS011;1703;51.964;7.642;2023-05-07T02:19:27;25.27;;;15.20;;
3379;SDS011;1703;51.964;7.642;2023-05-07T02:21:54;22.80;;;15.57;;
3379;SDS011;1703;51.964;7.642;2023-05-07T02:24:21;24.23;;;15.50;;
3379;SDS011;1703;51.964;7.642;2023-05-07T02:26:48;19.43;;;16.80;;
3379;SDS011;1703;51.964;7.642;2023-05-07T02:29:14;22.67;;;16.30;;
3379;SDS011;1703;51.964;7.642;2023-05-07T02:31:43;21.37;;;15.70;;
3379;SDS011;1703;51.964;7.642;2023-05-07T02:34:10;20.37;;;15.70;;
3379;SDS011;1703;51.964;7.642;2023-05-07T02:36:37;20.57;;;16.37;;
3379;SDS011;1703;51.964;7.642;2023-05-07T02:39:08;22.43;;;16.37;;
3379;SDS011;1703;51.964;7.642;2023-05-07T02:41:35;23.13;;;15.07;;
3379;SDS011;1703;51.964;7.642;2023-05-07T02:44:02;18.00;;;16.10;;
3379;SDS011;1703;51.964;7.642;2023-05-07T02:46:29;22.83;;;16.60;;
3379;SDS011;1703;51.964;7.642;2023-05-07T02:49:02;23.23;;;17.00;;
3379;SDS011;1703;51.964;7.642;2023-05-07T02:51:29;23.13;;;18.43;;
3379;SDS011;1703;51.964;7.642;2023-05-07T02:53:59;17.67;;;14.83;;
3379;SDS011;1703;51.964;7.642;2023-05-07T02:56:27;20.70;;;17.00;;
3379;SDS011;1703;51.964;7.642;2023-05-07T02:58:54;24.00;;;17.43;;
3379;SDS011;1703;51.964;7.642;2023-05-07T03:01:23;22.20;;;16.13;;
3379;SDS011;1703;51.964;7.642;2023-05-07T03:03:57;21.50;;;16.83;;
3379;SDS011;1703;51.964;7.642;2023-05-07T03:06:26;18.33;;;15.50;;
3379;SDS011;1703;51.964;7.642;2023-05-07T03:08:52;18.80;;;15.53;;
3379;SDS011;1703;51.964;7.642;2023-05-07T03:11:19;22.00;;;17.10;;
3379;SDS011;1703;51.964;7.642;2023-05-07T03:13:46;18.93;;;16.80;;
3379;SDS011;1703;51.964;7.642;2023-05-07T03:16:16;20.47;;;14.93;;
3379;SDS011;1703;51.964;7.642;2023-05-07T03:18:42;20.43;;;15.90;;
3379;SDS011;1703;51.964;7.642;2023-05-07T03:21:10;23.60;;;15.83;;
3379;SDS011;1703;51.964;7.642;2023-05-07T03:23:38;24.63;;;16.37;;
3379;SDS011;1703;51.964;7.642;2023-05-07T03:26:05;19.10;;;15.87;;
3379;SDS011;1703;51.964;7.642;2023-05-07T03:28:32;22.57;;;16.03;;
3379;SDS011;1703;51.964;7.642;2023-05-07T03:31:02;18.50;;;14.03;;
3379;SDS011;1703;51.964;7.642;2023-05-07T03:33:32;21.97;;;16.60;;
3379;SDS011;1703;51.964;7.642;2023-05-07T03:35:59;19.13;;;16.30;;
3379;SDS011;1703;51.964;7.642;2023-05-07T03:38:27;21.70;;;16.37;;
3379;SDS011;1703;51.964;7.642;2023-05-07T03:40:55;22.17;;;15.20;;
3379;SDS011;1703;51.964;7.642;2023-05-07T03:43:22;19.47;;;16.10;;
3379;SDS011;1703;51.964;7.642;2023-05-07T03:45:57;21.13;;;17.00;;
3379;SDS011;1703;51.964;7.642;2023-05-07T03:48:26;22.07;;;17.00;;
3379;SDS011;1703;51.964;7.642;2023-05-07T03:50:55;19.40;;;14.93;;
3379;SDS011;1703;51.964;7.642;2023-05-07T03:53:26;17.20;;;14.97;;
3379;SDS011;1703;51.964;7.642;2023-05-07T03:55:53;16.47;;;14.70;;
3379;SDS011;1703;51.964;7.642;2023-05-07T03:58:21;20.63;;;16.13;;
3379;SDS011;1703;51.964;7.642;2023-05-07T04:00:49;18.87;;;15.10;;
3379;SDS011;1703;51.964;7.642;2023-05-07T04:03:26;19.77;;;15.30;;
3379;SDS011;1703;51.964;7.642;2023-05-07T04:05:56;21.80;;;15.00;;
3379;SDS011;1703;51.964;7.642;2023-05-07T04:08:22;19.70;;;14.40;;
3379;SDS011;1703;51.964;7.642;2023-05-07T04:10:54;22.10;;;17.23;;
3379;SDS011;1703;51.964;7.642;2023-05-07T04:13:23;16.50;;;14.30;;
3379;SDS011;1703;51.964;7.642;2023-05-07T04:15:51;25.90;;;16.70;;
3379;SDS011;1703;51.964;7.642;2023-05-07T04:18:19;18.97;;;17.00;;
3379;SDS011;1703;51.964;7.642;2023-05-07T04:20:47;23.77;;;16.27;;
3379;SDS011;1703;51.964;7.642;2023-05-07T04:23:14;21.67;;;16.33;;
3379;SDS011;1703;51.964;7.642;2023-05-07T04:25:41;18.13;;;14.97;;
3379;SDS011;1703;51.964;7.642;2023-05-07T04:28:17;20.77;;;15.07;;
3379;SDS011;1703;51.964;7.642;2023-05-07T04:30:46;19.03;;;15.80;;
3379;SDS011;1703;51.964;7.642;2023-05-07T04:33:13;20.50;;;15.73;;
3379;SDS011;1703;51.964;7.642;2023-05-07T04:35:42;22.07;;;17.00;;
3379;SDS011;1703;51.964;7.642;2023-05-07T04:38:09;20.80;;;16.00;;
3379;SDS011;1703;51.964;7.642;2023-05-07T04:40:36;20.63;;;16.13;;
3379;SDS011;1703;51.964;7.642;2023-05-07T04:43:04;20.73;;;16.17;;
3379;SDS011;1703;51.964;7.642;2023-05-07T04:45:38;20.87;;;15.17;;
3379;SDS011;1703;51.964;7.642;2023-05-07T04:48:08;24.07;;;16.50;;
3379;SDS011;1703;51.964;7.642;2023-05-07T04:50:37;20.47;;;15.43;;
3379;SDS011;1703;51.964;7.642;2023-05-07T04:53:06;22.03;;;16.53;;
3379;SDS011;1703;51.964;7.642;2023-05-07T04:55:32;20.27;;;16.37;;
3379;SDS011;1703;51.964;7.642;2023-05-07T04:58:00;19.93;;;17.50;;
3379;SDS011;1703;51.964;7.642;2023-05-07T05:00:29;20.77;;;15.60;;
3379;SDS011;1703;51.964;7.642;2023-05-07T05:02:56;20.30;;;17.03;;
3379;SDS011;1703;51.964;7.642;2023-05-07T05:05:25;21.83;;;17.30;;
3379;SDS011;1703;51.964;7.642;2023-05-07T05:07:53;26.23;;;17.07;;
3379;SDS011;1703;51.964;7.642;2023-05-07T05:10:20;21.77;;;17.53;;
3379;SDS011;1703;51.964;7.642;2023-05-07T05:12:48;23.27;;;17.67;;
3379;SDS011;1703;51.964;7.642;2023-05-07T05:15:15;24.53;;;19.00;;
3379;SDS011;1703;51.964;7.642;2023-05-07T05:17:42;20.50;;;15.33;;
3379;SDS011;1703;51.964;7.642;2023-05-07T05:20:09;18.30;;;15.70;;
3379;SDS011;1703;51.964;7.642;2023-05-07T05:22:39;23.33;;;17.00;;
3379;SDS011;1703;51.964;7.642;2023-05-07T05:25:07;21.13;;;17.47;;
3379;SDS011;1703;51.964;7.642;2023-05-07T05:27:34;25.27;;;16.90;;
3379;SDS011;1703;51.964;7.642;2023-05-07T05:30:01;19.00;;;16.17;;
3379;SDS011;1703;51.964;7.642;2023-05-07T05:32:29;20.37;;;17.53;;
3379;SDS011;1703;51.964;7.642;2023-05-07T05:34:56;24.47;;;18.40;;
3379;SDS011;1703;51.964;7.642;2023-05-07T05:37:24;23.30;;;17.20;;
3379;SDS011;1703;51.964;7.642;2023-05-07T05:39:53;23.23;;;15.73;;
3379;SDS011;1703;51.964;7.642;2023-05-07T05:42:21;26.30;;;17.87;;
3379;SDS011;1703;51.964;7.642;2023-05-07T05:44:47;20.43;;;15.80;;
3379;SDS011;1703;51.964;7.642;2023-05-07T05:47:15;27.57;;;16.90;;
3379;SDS011;1703;51.964;7.642;2023-05-07T05:49:42;21.30;;;17.67;;
3379;SDS011;1703;51.964;7.642;2023-05-07T05:52:11;22.20;;;16.93;;
3379;SDS011;1703;51.964;7.642;2023-05-07T05:54:38;25.53;;;18.03;;
3379;SDS011;1703;51.964;7.642;2023-05-07T05:57:06;19.43;;;15.80;;
3379;SDS011;1703;51.964;7.642;2023-05-07T05:59:33;20.60;;;16.93;;
3379;SDS011;1703;51.964;7.642;2023-05-07T06:02:00;23.97;;;16.50;;
3379;SDS011;1703;51.964;7.642;2023-05-07T06:04:27;21.27;;;16.70;;
3379;SDS011;1703;51.964;7.642;2023-05-07T06:06:55;22.77;;;15.27;;
3379;SDS011;1703;51.964;7.642;2023-05-07T06:09:24;21.93;;;17.00;;
3379;SDS011;1703;51.964;7.642;2023-05-07T06:11:50;22.90;;;17.93;;
3379;SDS011;1703;51.964;7.642;2023-05-07T06:14:19;21.00;;;17.10;;
3379;SDS011;1703;51.964;7.642;2023-05-07T06:16:45;19.40;;;15.30;;
3379;SDS011;1703;51.964;7.642;2023-05-07T06:19:12;20.20;;;15.33;;
3379;SDS011;1703;51.964;7.642;2023-05-07T06:21:40;25.30;;;17.53;;
3379;SDS011;1703;51.964;7.642;2023-05-07T06:24:07;27.70;;;17.70;;
3379;SDS011;1703;51.964;7.642;2023-05-07T06:26:36;26.60;;;18.10;;
3379;SDS011;1703;51.964;7.642;2023-05-07T06:29:03;28.00;;;18.00;;
3379;SDS011;1703;51.964;7.642;2023-05-07T06:31:31;20.17;;;16.93;;
3379;SDS011;1703;51.964;7.642;2023-05-07T06:34:02;22.93;;;15.00;;
3379;SDS011;1703;51.964;7.642;2023-05-07T06:36:35;30.67;;;19.03;;
3379;SDS011;1703;51.964;7.642;2023-05-07T06:39:17;21.93;;;15.80;;
3379;SDS011;1703;51.964;7.642;2023-05-07T06:41:44;25.50;;;17.13;;
3379;SDS011;1703;51.964;7.642;2023-05-07T06:44:21;21.67;;;15.67;;
3379;SDS011;1703;51.964;7.642;2023-05-07T06:46:59;24.37;;;16.40;;
3379;SDS011;1703;51.964;7.642;2023-05-07T06:49:26;25.47;;;17.37;;
3379;SDS011;1703;51.964;7.642;2023-05-07T06:51:53;21.53;;;18.40;;
3379;SDS011;1703;51.964;7.642;2023-05-07T06:54:20;21.97;;;17.13;;
3379;SDS011;1703;51.964;7.642;2023-05-07T06:56:48;21.10;;;16.83;;
3379;SDS011;1703;51.964;7.642;2023-05-07T06:59:16;21.97;;;17.43;;
3379;SDS011;1703;51.964;7.642;2023-05-07T07:01:44;20.43;;;17.47;;
3379;SDS011;1703;51.964;7.642;2023-05-07T07:04:15;24.00;;;18.57;;
3379;SDS011;1703;51.964;7.642;2023-05-07T07:06:45;24.07;;;18.70;;
3379;SDS011;1703;51.964;7.642;2023-05-07T07:09:13;23.93;;;18.20;;
3379;SDS011;1703;51.964;7.642;2023-05-07T07:11:40;20.60;;;15.10;;
3379;SDS011;1703;51.964;7.642;2023-05-07T07:14:08;23.63;;;15.20;;
3379;SDS011;1703;51.964;7.642;2023-05-07T07:16:42;29.73;;;17.97;;
3379;SDS011;1703;51.964;7.642;2023-05-07T07:19:09;22.30;;;17.50;;
3379;SDS011;1703;51.964;7.642;2023-05-07T07:21:37;24.87;;;17.53;;
3379;SDS011;1703;51.964;7.642;2023-05-07T07:24:04;22.80;;;16.80;;
3379;SDS011;1703;51.964;7.642;2023-05-07T07:26:31;23.07;;;18.70;;
3379;SDS011;1703;51.964;7.642;2023-05-07T07:28:58;23.67;;;18.30;;
3379;SDS011;1703;51.964;7.642;2023-05-07T07:31:25;21.90;;;18.70;;
3379;SDS011;1703;51.964;7.642;2023-05-07T07:33:52;29.90;;;18.40;;
3379;SDS011;1703;51.964;7.642;2023-05-07T07:36:19;23.97;;;18.73;;
3379;SDS011;1703;51.964;7.642;2023-05-07T07:38:47;25.60;;;18.33;;
3379;SDS011;1703;51.964;7.642;2023-05-07T07:41:16;23.93;;;17.50;;
3379;SDS011;1703;51.964;7.642;2023-05-07T07:43:43;27.93;;;19.80;;
3379;SDS011;1703;51.964;7.642;2023-05-07T07:46:12;29.27;;;18.97;;
3379;SDS011;1703;51.964;7.642;2023-05-07T07:48:39;27.03;;;17.93;;
3379;SDS011;1703;51.964;7.642;2023-05-07T07:51:06;23.97;;;17.40;;
3379;SDS011;1703;51.964;7.642;2023-05-07T07:53:33;20.97;;;16.73;;
3379;SDS011;1703;51.964;7.642;2023-05-07T07:56:02;24.90;;;17.43;;
3379;SDS011;1703;51.964;7.642;2023-05-07T07:58:31;21.77;;;16.40;;
3379;SDS011;1703;51.964;7.642;2023-05-07T08:01:00;22.53;;;17.30;;
3379;SDS011;1703;51.964;7.642;2023-05-07T08:03:27;25.03;;;19.37;;
3379;SDS011;1703;51.964;7.642;2023-05-07T08:05:57;27.10;;;18.00;;
3379;SDS011;1703;51.964;7.642;2023-05-07T08:08:24;20.90;;;16.87;;
3379;SDS011;1703;51.964;7.642;2023-05-07T08:10:53;23.23;;;19.67;;
3379;SDS011;1703;51.964;7.642;2023-05-07T08:13:28;24.37;;;18.27;;
3379;SDS011;1703;51.964;7.642;2023-05-07T08:15:55;25.30;;;16.90;;
3379;SDS011;1703;51.964;7.642;2023-05-07T08:18:22;18.40;;;15.57;;
3379;SDS011;1703;51.964;7.642;2023-05-07T08:20:50;23.20;;;18.37;;
3379;SDS011;1703;51.964;7.642;2023-05-07T08:23:20;22.80;;;17.47;;
3379;SDS011;1703;51.964;7.642;2023-05-07T08:25:48;21.57;;;16.73;;
3379;SDS011;1703;51.964;7.642;2023-05-07T08:28:17;20.33;;;17.10;;
3379;SDS011;1703;51.964;7.642;2023-05-07T08:30:46;19.50;;;15.60;;
3379;SDS011;1703;51.964;7.642;2023-05-07T08:33:12;24.23;;;18.50;;
3379;SDS011;1703;51.964;7.642;2023-05-07T08:35:40;22.73;;;17.80;;
3379;SDS011;1703;51.964;7.642;2023-05-07T08:38:08;20.77;;;18.37;;
3379;SDS011;1703;51.964;7.642;2023-05-07T08:40:36;29.43;;;17.10;;
3379;SDS011;1703;51.964;7.642;2023-05-07T08:43:07;21.20;;;17.77;;
3379;SDS011;1703;51.964;7.642;2023-05-07T08:45:36;24.27;;;16.13;;
3379;SDS011;1703;51.964;7.642;2023-05-07T08:48:12;19.63;;;16.43;;
3379;SDS011;1703;51.964;7.642;2023-05-07T08:50:44;23.27;;;18.30;;
3379;SDS011;1703;51.964;7.642;2023-05-07T08:53:10;23.77;;;18.00;;
3379;SDS011;1703;51.964;7.642;2023-05-07T08:55:39;25.17;;;17.13;;
3379;SDS011;1703;51.964;7.642;2023-05-07T08:58:06;20.43;;;16.57;;
3379;SDS011;1703;51.964;7.642;2023-05-07T09:00:36;20.00;;;17.23;;
3379;SDS011;1703;51.964;7.642;2023-05-07T09:03:05;22.20;;;16.90;;
3379;SDS011;1703;51.964;7.642;2023-05-07T09:05:34;23.87;;;16.43;;
3379;SDS011;1703;51.964;7.642;2023-05-07T09:08:03;20.57;;;16.53;;
3379;SDS011;1703;51.964;7.642;2023-05-07T09:10:32;19.93;;;15.90;;
3379;SDS011;1703;51.964;7.642;2023-05-07T09:12:59;17.47;;;15.63;;
3379;SDS011;1703;51.964;7.642;2023-05-07T09:15:28;22.17;;;16.17;;
3379;SDS011;1703;51.964;7.642;2023-05-07T09:17:56;22.57;;;17.93;;
3379;SDS011;1703;51.964;7.642;2023-05-07T09:20:31;21.33;;;17.00;;
3379;SDS011;1703;51.964;7.642;2023-05-07T09:23:01;19.20;;;14.97;;
3379;SDS011;1703;51.964;7.642;2023-05-07T09:25:29;23.00;;;15.67;;
3379;SDS011;1703;51.964;7.642;2023-05-07T09:28:00;18.73;;;14.73;;
3379;SDS011;1703;51.964;7.642;2023-05-07T09:30:27;16.13;;;14.10;;
3379;SDS011;1703;51.964;7.642;2023-05-07T09:32:57;24.20;;;15.40;;
3379;SDS011;1703;51.964;7.642;2023-05-07T09:35:25;16.23;;;13.53;;
3379;SDS011;1703;51.964;7.642;2023-05-07T09:37:57;22.70;;;16.10;;
3379;SDS011;1703;51.964;7.642;2023-05-07T09:40:27;23.10;;;15.87;;
3379;SDS011;1703;51.964;7.642;2023-05-07T09:43:07;19.83;;;14.87;;
3379;SDS011;1703;51.964;7.642;2023-05-07T09:45:36;21.00;;;14.00;;
3379;SDS011;1703;51.964;7.642;2023-05-07T09:48:04;17.53;;;15.30;;
3379;SDS011;1703;51.964;7.642;2023-05-07T09:50:32;21.43;;;15.07;;
3379;SDS011;1703;51.964;7.642;2023-05-07T09:53:03;20.97;;;14.90;;
3379;SDS011;1703;51.964;7.642;2023-05-07T09:55:32;18.93;;;15.20;;
3379;SDS011;1703;51.964;7.642;2023-05-07T09:57:59;16.80;;;13.90;;
3379;SDS011;1703;51.964;7.642;2023-05-07T10:00:28;18.83;;;14.63;;
3379;SDS011;1703;51.964;7.642;2023-05-07T10:03:04;19.37;;;13.97;;
3379;SDS011;1703;51.964;7.642;2023-05-07T10:05:40;20.43;;;16.10;;
3379;SDS011;1703;51.964;7.642;2023-05-07T10:08:10;15.47;;;12.97;;
3379;SDS011;1703;51.964;7.642;2023-05-07T10:10:40;20.63;;;14.20;;
3379;SDS011;1703;51.964;7.642;2023-05-07T10:13:11;19.07;;;14.70;;
3379;SDS011;1703;51.964;7.642;2023-05-07T10:15:43;19.47;;;13.80;;
3379;SDS011;1703;51.964;7.642;2023-05-07T10:18:10;20.43;;;13.97;;
3379;SDS011;1703;51.964;7.642;2023-05-07T10:20:40;15.60;;;14.00;;
3379;SDS011;1703;51.964;7.642;2023-05-07T10:23:13;15.93;;;12.27;;
3379;SDS011;1703;51.964;7.642;2023-05-07T10:25:46;17.20;;;13.60;;
3379;SDS011;1703;51.964;7.642;2023-05-07T10:28:19;19.60;;;13.80;;
3379;SDS011;1703;51.964;7.642;2023-05-07T10:30:50;17.60;;;13.90;;
3379;SDS011;1703;51.964;7.642;2023-05-07T10:33:35;18.07;;;12.73;;
3379;SDS011;1703;51.964;7.642;2023-05-07T10:36:04;17.20;;;12.40;;
3379;SDS011;1703;51.964;7.642;2023-05-07T10:38:33;12.37;;;10.40;;
3379;SDS011;1703;51.964;7.642;2023-05-07T10:41:02;16.27;;;11.87;;
3379;SDS011;1703;51.964;7.642;2023-05-07T10:43:42;15.50;;;12.47;;
3379;SDS011;1703;51.964;7.642;2023-05-07T10:46:17;14.43;;;12.40;;
3379;SDS011;1703;51.964;7.642;2023-05-07T10:49:10;14.70;;;11.83;;
3379;SDS011;1703;51.964;7.642;2023-05-07T10:51:45;14.50;;;12.47;;
3379;SDS011;1703;51.964;7.642;2023-05-07T10:54:45;14.40;;;11.87;;
3379;SDS011;1703;51.964;7.642;2023-05-07T10:57:33;15.30;;;11.90;;
3379;SDS011;1703;51.964;7.642;2023-05-07T11:03:11;19.17;;;14.90;;
3379;SDS011;1703;51.964;7.642;2023-05-07T11:05:45;12.77;;;11.47;;
3379;SDS011;1703;51.964;7.642;2023-05-07T11:08:18;16.73;;;11.23;;
3379;SDS011;1703;51.964;7.642;2023-05-07T11:10:52;15.23;;;12.70;;
3379;SDS011;1703;51.964;7.642;2023-05-07T11:13:44;13.33;;;11.90;;
3379;SDS011;1703;51.964;7.642;2023-05-07T11:16:21;15.87;;;10.97;;
3379;SDS011;1703;51.964;7.642;2023-05-07T11:18:55;17.00;;;12.90;;
3379;SDS011;1703;51.964;7.642;2023-05-07T11:21:33;13.20;;;11.80;;
3379;SDS011;1703;51.964;7.642;2023-05-07T11:24:24;13.83;;;10.80;;
3379;SDS011;1703;51.964;7.642;2023-05-07T11:27:02;10.73;;;9.47;;
3379;SDS011;1703;51.964;7.642;2023-05-07T11:29:32;11.10;;;9.93;;
3379;SDS011;1703;51.964;7.642;2023-05-07T11:32:05;10.50;;;9.40;;
3379;SDS011;1703;51.964;7.642;2023-05-07T11:34:41;13.77;;;10.00;;
3379;SDS011;1703;51.964;7.642;2023-05-07T11:37:10;12.37;;;9.17;;
3379;SDS011;1703;51.964;7.642;2023-05-07T11:39:50;10.83;;;8.60;;
3379;SDS011;1703;51.964;7.642;2023-05-07T11:42:28;10.73;;;9.57;;
3379;SDS011;1703;51.964;7.642;2023-05-07T11:44:57;11.33;;;8.60;;
3379;SDS011;1703;51.964;7.642;2023-05-07T11:47:24;14.63;;;9.63;;
3379;SDS011;1703;51.964;7.642;2023-05-07T11:49:52;11.57;;;10.37;;
3379;SDS011;1703;51.964;7.642;2023-05-07T11:52:21;10.13;;;9.10;;
3379;SDS011;1703;51.964;7.642;2023-05-07T11:54:50;10.57;;;9.47;;
3379;SDS011;1703;51.964;7.642;2023-05-07T11:57:17;10.00;;;8.80;;
3379;SDS011;1703;51.964;7.642;2023-05-07T11:59:45;9.70;;;8.70;;
3379;SDS011;1703;51.964;7.642;2023-05-07T12:02:14;9.00;;;8.13;;
3379;SDS011;1703;51.964;7.642;2023-05-07T12:04:41;12.60;;;9.13;;
3379;SDS011;1703;51.964;7.642;2023-05-07T12:07:11;11.03;;;9.80;;
3379;SDS011;1703;51.964;7.642;2023-05-07T12:09:38;9.80;;;8.90;;
3379;SDS011;1703;51.964;7.642;2023-05-07T12:12:05;8.70;;;7.90;;
3379;SDS011;1703;51.964;7.642;2023-05-07T12:14:32;10.40;;;8.13;;
3379;SDS011;1703;51.964;7.642;2023-05-07T12:17:03;8.73;;;7.67;;
3379;SDS011;1703;51.964;7.642;2023-05-07T12:19:32;8.10;;;7.33;;
3379;SDS011;1703;51.964;7.642;2023-05-07T12:22:00;8.77;;;7.87;;
3379;SDS011;1703;51.964;7.642;2023-05-07T12:24:28;9.33;;;7.23;;
3379;SDS011;1703;51.964;7.642;2023-05-07T12:26:55;9.43;;;8.33;;
3379;SDS011;1703;51.964;7.642;2023-05-07T12:29:22;10.77;;;9.03;;
3379;SDS011;1703;51.964;7.642;2023-05-07T12:31:49;9.93;;;8.10;;
3379;SDS011;1703;51.964;7.642;2023-05-07T12:34:16;9.60;;;8.23;;
3379;SDS011;1703;51.964;7.642;2023-05-07T12:36:44;9.30;;;8.17;;
3379;SDS011;1703;51.964;7.642;2023-05-07T12:39:14;10.67;;;8.33;;
3379;SDS011;1703;51.964;7.642;2023-05-07T12:41:53;11.30;;;7.90;;
3379;SDS011;1703;51.964;7.642;2023-05-07T12:44:21;8.80;;;7.80;;
3379;SDS011;1703;51.964;7.642;2023-05-07T12:46:49;8.57;;;7.13;;
3379;SDS011;1703;51.964;7.642;2023-05-07T12:49:15;7.50;;;6.77;;
3379;SDS011;1703;51.964;7.642;2023-05-07T12:51:47;9.60;;;7.37;;
3379;SDS011;1703;51.964;7.642;2023-05-07T12:54:27;8.10;;;6.90;;
3379;SDS011;1703;51.964;7.642;2023-05-07T12:56:59;7.00;;;6.40;;
3379;SDS011;1703;51.964;7.642;2023-05-07T12:59:30;7.90;;;7.17;;
3379;SDS011;1703;51.964;7.642;2023-05-07T13:01:58;10.43;;;7.07;;
3379;SDS011;1703;51.964;7.642;2023-05-07T13:04:24;7.60;;;6.90;;
3379;SDS011;1703;51.964;7.642;2023-05-07T13:06:53;8.63;;;7.03;;
3379;SDS011;1703;51.964;7.642;2023-05-07T13:09:25;10.10;;;8.07;;
3379;SDS011;1703;51.964;7.642;2023-05-07T13:11:54;8.77;;;6.80;;
3379;SDS011;1703;51.964;7.642;2023-05-07T13:14:21;8.30;;;6.90;;
3379;SDS011;1703;51.964;7.642;2023-05-07T13:16:47;7.90;;;6.57;;
3379;SDS011;1703;51.964;7.642;2023-05-07T13:19:14;10.40;;;8.13;;
3379;SDS011;1703;51.964;7.642;2023-05-07T13:21:41;8.50;;;7.73;;
3379;SDS011;1703;51.964;7.642;2023-05-07T13:24:09;9.20;;;6.53;;
3379;SDS011;1703;51.964;7.642;2023-05-07T13:26:36;12.20;;;7.03;;
3379;SDS011;1703;51.964;7.642;2023-05-07T13:29:03;8.30;;;6.93;;
3379;SDS011;1703;51.964;7.642;2023-05-07T13:31:29;7.57;;;6.70;;
3379;SDS011;1703;51.964;7.642;2023-05-07T13:33:56;10.57;;;6.83;;
3379;SDS011;1703;51.964;7.642;2023-05-07T13:36:23;7.43;;;5.93;;
3379;SDS011;1703;51.964;7.642;2023-05-07T13:38:50;10.60;;;6.80;;
3379;SDS011;1703;51.964;7.642;2023-05-07T13:41:19;16.33;;;7.80;;
3379;SDS011;1703;51.964;7.642;2023-05-07T13:43:46;7.80;;;6.80;;
3379;SDS011;1703;51.964;7.642;2023-05-07T13:46:12;7.07;;;6.47;;
3379;SDS011;1703;51.964;7.642;2023-05-07T13:48:39;7.03;;;6.33;;
3379;SDS011;1703;51.964;7.642;2023-05-07T13:51:06;7.80;;;6.80;;
3379;SDS011;1703;51.964;7.642;2023-05-07T13:53:33;7.90;;;7.20;;
3379;SDS011;1703;51.964;7.642;2023-05-07T13:56:00;7.83;;;7.03;;
3379;SDS011;1703;51.964;7.642;2023-05-07T13:58:30;8.53;;;7.43;;
3379;SDS011;1703;51.964;7.642;2023-05-07T14:00:58;7.73;;;6.13;;
3379;SDS011;1703;51.964;7.642;2023-05-07T14:03:24;8.07;;;7.20;;
3379;SDS011;1703;51.964;7.642;2023-05-07T14:05:53;9.90;;;8.47;;
3379;SDS011;1703;51.964;7.642;2023-05-07T14:08:19;8.60;;;7.77;;
3379;SDS011;1703;51.964;7.642;2023-05-07T14:10:46;10.07;;;9.10;;
3379;SDS011;1703;51.964;7.642;2023-05-07T14:13:13;11.10;;;7.67;;
3379;SDS011;1703;51.964;7.642;2023-05-07T14:15:41;7.73;;;7.00;;
3379;SDS011;1703;51.964;7.642;2023-05-07T14:18:11;7.53;;;6.83;;
3379;SDS011;1703;51.964;7.642;2023-05-07T14:20:38;8.37;;;7.47;;
3379;SDS011;1703;51.964;7.642;2023-05-07T14:23:05;6.90;;;6.13;;
3379;SDS011;1703;51.964;7.642;2023-05-07T14:25:32;6.97;;;6.27;;
3379;SDS011;1703;51.964;7.642;2023-05-07T14:27:58;7.00;;;6.40;;
3379;SDS011;1703;51.964;7.642;2023-05-07T14:30:25;8.00;;;7.23;;
3379;SDS011;1703;51.964;7.642;2023-05-07T14:32:53;7.93;;;7.13;;
3379;SDS011;1703;51.964;7.642;2023-05-07T14:35:20;9.90;;;7.07;;
3379;SDS011;1703;51.964;7.642;2023-05-07T14:37:47;8.27;;;6.60;;
3379;SDS011;1703;51.964;7.642;2023-05-07T14:40:14;8.23;;;7.43;;
3379;SDS011;1703;51.964;7.642;2023-05-07T14:42:41;7.27;;;6.60;;
3379;SDS011;1703;51.964;7.642;2023-05-07T14:45:09;7.97;;;7.13;;
3379;SDS011;1703;51.964;7.642;2023-05-07T14:47:36;8.03;;;6.60;;
3379;SDS011;1703;51.964;7.642;2023-05-07T14:50:04;7.83;;;6.20;;
3379;SDS011;1703;51.964;7.642;2023-05-07T14:52:32;8.53;;;7.23;;
3379;SDS011;1703;51.964;7.642;2023-05-07T14:54:58;9.60;;;7.00;;
3379;SDS011;1703;51.964;7.642;2023-05-07T14:57:25;7.40;;;5.67;;
3379;SDS011;1703;51.964;7.642;2023-05-07T14:59:52;6.40;;;5.80;;
3379;SDS011;1703;51.964;7.642;2023-05-07T15:02:19;7.07;;;6.37;;
3379;SDS011;1703;51.964;7.642;2023-05-07T15:04:46;5.63;;;5.10;;
3379;SDS011;1703;51.964;7.642;2023-05-07T15:07:15;6.17;;;5.33;;
3379;SDS011;1703;51.964;7.642;2023-05-07T15:09:42;5.57;;;5.03;;